Time;durP1;ratioP1;P1;durP2;ratioP2;P2;SDS_P1;SDS_P2;PMS_P1;PMS_P2;Temp;Humidity;BMP_temperature;BMP_pressure;BME280_temperature;BME280_humidity;BME280_pressure;Samples;Min_cycle;Max_cycle;Signal;HPM_P1;HPM_P2
2021/04/21 00:01:21;;;;;;;9.60;6.60;;;12.70;85.90;;;;;;6154788;23;20021;-83
2021/04/21 00:03:48;;;;;;;10.65;6.70;;;12.70;85.90;;;;;;6156177;23;20053;-83
2021/04/21 00:06:28;;;;;;;9.48;6.47;;;12.60;85.80;;;;;;6155726;23;20014;-83
2021/04/21 00:08:55;;;;;;;10.75;6.43;;;12.60;85.60;;;;;;6155258;23;20048;-83
2021/04/21 00:11:21;;;;;;;11.23;6.47;;;12.60;85.50;;;;;;6155018;23;20521;-83
2021/04/21 00:13:46;;;;;;;11.73;6.60;;;12.40;85.50;;;;;;6156029;23;20025;-83
2021/04/21 00:16:14;;;;;;;11.57;6.18;;;12.40;85.60;;;;;;6154719;23;20046;-83
2021/04/21 00:18:43;;;;;;;11.35;6.88;;;12.30;85.70;;;;;;6155893;23;20022;-83
2021/04/21 00:21:09;;;;;;;10.77;6.45;;;12.30;85.80;;;;;;6155607;23;20382;-83
2021/04/21 00:23:37;;;;;;;9.80;6.18;;;12.20;85.80;;;;;;6154639;23;20528;-83
2021/04/21 00:26:09;;;;;;;10.35;6.32;;;12.20;85.90;;;;;;6155408;23;20017;-84
2021/04/21 00:28:36;;;;;;;13.85;7.00;;;12.10;85.90;;;;;;6155832;23;20022;-83
2021/04/21 00:31:07;;;;;;;11.07;7.22;;;12.10;86.00;;;;;;6154882;23;20133;-83
2021/04/21 00:33:35;;;;;;;11.07;6.53;;;12.00;85.90;;;;;;6155481;23;20029;-83
2021/04/21 00:36:04;;;;;;;11.02;7.18;;;11.90;86.00;;;;;;6154556;23;20017;-83
2021/04/21 00:38:32;;;;;;;11.20;6.82;;;11.90;86.00;;;;;;6155065;23;20025;-83
2021/04/21 00:41:06;;;;;;;11.10;6.88;;;11.90;86.10;;;;;;6155732;23;20041;-83
2021/04/21 00:43:56;;;;;;;11.07;6.70;;;11.80;86.00;;;;;;6154359;23;20017;-83
2021/04/21 00:46:32;;;;;;;9.88;6.50;;;11.70;86.20;;;;;;6155230;23;20110;-83
2021/04/21 00:49:14;;;;;;;10.48;6.68;;;11.70;86.10;;;;;;6155342;23;20316;-83
2021/04/21 00:51:59;;;;;;;9.85;6.72;;;11.70;85.90;;;;;;6154556;23;20018;-83
2021/04/21 00:54:49;;;;;;;10.63;6.53;;;11.60;85.60;;;;;;6155369;23;20028;-84
2021/04/21 00:57:37;;;;;;;9.63;6.60;;;11.50;85.80;;;;;;6154490;23;20018;-83
2021/04/21 01:00:17;;;;;;;9.98;6.30;;;11.40;85.70;;;;;;6155658;23;20013;-83
2021/04/21 01:03:09;;;;;;;9.43;6.55;;;11.30;85.90;;;;;;6155149;23;20013;-83
2021/04/21 01:06:05;;;;;;;12.82;6.55;;;11.20;85.90;;;;;;6154673;23;20367;-84
2021/04/21 01:08:48;;;;;;;9.85;6.22;;;11.10;85.90;;;;;;6149891;23;20386;-83
2021/04/21 01:11:32;;;;;;;9.75;6.40;;;11.10;86.40;;;;;;6153901;23;20443;-82
2021/04/21 01:14:03;;;;;;;10.55;6.60;;;11.00;86.30;;;;;;6155630;23;20028;-83
2021/04/21 01:16:32;;;;;;;9.93;6.50;;;10.90;86.70;;;;;;6155049;23;20024;-83
2021/04/21 01:19:03;;;;;;;11.45;6.93;;;10.90;86.80;;;;;;6154840;23;20028;-83
2021/04/21 01:21:37;;;;;;;10.25;6.55;;;10.90;87.00;;;;;;6155372;23;20024;-83
2021/04/21 01:24:14;;;;;;;9.18;6.65;;;10.90;86.90;;;;;;6155449;23;20023;-83
2021/04/21 01:27:10;;;;;;;10.32;6.80;;;10.80;86.80;;;;;;6154208;23;20068;-83
2021/04/21 01:29:46;;;;;;;9.88;6.45;;;10.80;86.90;;;;;;6155253;23;20481;-83
2021/04/21 01:32:20;;;;;;;10.05;6.78;;;10.70;87.00;;;;;;6154286;23;20025;-84
2021/04/21 01:34:48;;;;;;;9.90;6.55;;;10.70;87.10;;;;;;6155286;23;20033;-83
2021/04/21 01:37:18;;;;;;;9.63;6.63;;;10.70;87.20;;;;;;6154549;23;20024;-83
2021/04/21 01:39:49;;;;;;;10.10;6.85;;;10.60;87.20;;;;;;6155026;23;20025;-82
2021/04/21 01:42:17;;;;;;;11.10;7.32;;;10.60;87.30;;;;;;6155341;23;20092;-83
2021/04/21 01:44:46;;;;;;;10.65;7.43;;;10.50;87.30;;;;;;6155524;23;20106;-82
2021/04/21 01:47:17;;;;;;;10.80;6.95;;;10.50;87.40;;;;;;6153604;23;20480;-82
2021/04/21 01:49:57;;;;;;;10.27;6.47;;;10.50;87.50;;;;;;6155194;23;20484;-82
2021/04/21 01:52:35;;;;;;;9.25;6.70;;;10.40;87.40;;;;;;6155264;23;20017;-83
2021/04/21 01:55:14;;;;;;;10.40;6.60;;;10.40;87.50;;;;;;6154355;23;20014;-83
2021/04/21 01:58:14;;;;;;;12.13;7.28;;;10.30;87.40;;;;;;6154867;23;20080;-82
2021/04/21 02:00:48;;;;;;;12.75;7.15;;;10.30;86.80;;;;;;6128706;23;20096;-83
2021/04/21 02:03:29;;;;;;;13.35;6.78;;;10.30;87.40;;;;;;6155148;23;20018;-83
2021/04/21 02:06:04;;;;;;;10.93;7.00;;;10.20;87.30;;;;;;6155463;23;20013;-82
2021/04/21 02:08:43;;;;;;;9.40;6.75;;;10.10;87.10;;;;;;6153831;23;20451;-83
2021/04/21 02:11:20;;;;;;;9.10;6.40;;;10.10;87.40;;;;;;6154124;23;20096;-83
2021/04/21 02:14:23;;;;;;;9.20;6.65;;;10.00;87.30;;;;;;6154809;23;20088;-83
2021/04/21 02:17:19;;;;;;;11.90;6.55;;;9.90;86.60;;;;;;6155505;23;20089;-83
2021/04/21 02:19:58;;;;;;;11.88;7.07;;;9.90;87.10;;;;;;6154998;23;20386;-83
2021/04/21 02:22:33;;;;;;;9.77;7.03;;;9.80;87.20;;;;;;6155177;23;20013;-82
2021/04/21 02:25:12;;;;;;;10.60;7.13;;;9.70;87.50;;;;;;6156773;23;20020;-83
2021/04/21 02:28:06;;;;;;;9.85;6.68;;;9.70;87.60;;;;;;6156922;23;20036;-82
2021/04/21 02:30:49;;;;;;;10.13;6.68;;;9.60;87.30;;;;;;6155617;23;20021;-83
2021/04/21 02:33:26;;;;;;;11.57;6.75;;;9.50;87.10;;;;;;6156334;23;20113;-83
2021/04/21 02:36:05;;;;;;;9.43;6.90;;;9.40;87.20;;;;;;6155930;23;20043;-83
2021/04/21 02:38:53;;;;;;;11.32;7.00;;;9.40;87.30;;;;;;6156618;23;20021;-83
2021/04/21 02:41:34;;;;;;;10.40;6.72;;;9.40;87.60;;;;;;6155725;23;20018;-83
2021/04/21 02:44:30;;;;;;;11.50;6.63;;;9.30;87.80;;;;;;6155746;23;20022;-83
2021/04/21 02:46:58;;;;;;;10.32;6.45;;;9.20;87.70;;;;;;6156780;23;20017;-83
2021/04/21 02:49:35;;;;;;;10.95;7.97;;;9.20;88.10;;;;;;6155228;23;20014;-83
2021/04/21 02:52:07;;;;;;;14.23;7.50;;;9.20;88.20;;;;;;6130559;23;20068;-83
2021/04/21 02:55:05;;;;;;;11.32;7.38;;;9.10;88.30;;;;;;6156216;23;20088;-84
2021/04/21 02:57:36;;;;;;;12.38;7.45;;;9.10;87.40;;;;;;6154581;23;20526;-83
2021/04/21 03:00:09;;;;;;;10.95;7.50;;;9.00;88.10;;;;;;6156681;23;20049;-83
2021/04/21 03:02:40;;;;;;;9.68;7.55;;;9.00;88.30;;;;;;6157016;23;20394;-83
2021/04/21 03:05:13;;;;;;;11.93;7.88;;;8.90;88.20;;;;;;6155592;23;20014;-82
2021/04/21 03:08:06;;;;;;;10.10;7.90;;;8.90;88.30;;;;;;6156303;23;20028;-83
2021/04/21 03:10:41;;;;;;;12.43;7.68;;;8.80;88.40;;;;;;6155144;23;20187;-83
2021/04/21 03:13:16;;;;;;;11.65;8.07;;;8.80;88.90;;;;;;6155907;23;20406;-83
2021/04/21 03:15:54;;;;;;;12.05;8.23;;;8.80;88.90;;;;;;6156513;23;20014;-83
2021/04/21 03:18:21;;;;;;;11.68;8.15;;;8.80;89.10;;;;;;6155423;23;20017;-83
2021/04/21 03:21:13;;;;;;;12.27;8.40;;;8.80;89.20;;;;;;6156462;23;20021;-83
2021/04/21 03:23:44;;;;;;;11.05;8.07;;;8.70;89.20;;;;;;6136670;23;20453;-83
2021/04/21 03:26:12;;;;;;;11.73;7.88;;;8.70;88.90;;;;;;6128350;23;20082;-83
2021/04/21 03:28:39;;;;;;;14.15;8.25;;;8.70;88.80;;;;;;6156429;23;20088;-83
2021/04/21 03:31:09;;;;;;;10.75;7.88;;;8.60;88.70;;;;;;6156016;23;20096;-83
2021/04/21 03:33:51;;;;;;;11.27;8.70;;;8.60;88.20;;;;;;6155126;23;20068;-83
2021/04/21 03:36:19;;;;;;;13.02;8.45;;;8.60;88.70;;;;;;6154860;23;20018;-82
2021/04/21 03:38:57;;;;;;;12.95;8.73;;;8.50;88.60;;;;;;6155044;23;20473;-83
2021/04/21 03:41:23;;;;;;;13.32;9.02;;;8.50;88.70;;;;;;6155281;23;20446;-83
2021/04/21 03:43:50;;;;;;;11.45;8.40;;;8.40;88.50;;;;;;6156291;23;20019;-83
2021/04/21 03:46:17;;;;;;;13.38;8.25;;;8.40;88.90;;;;;;6154490;23;20346;-83
2021/04/21 03:48:44;;;;;;;12.35;8.60;;;8.40;89.00;;;;;;6155859;23;20014;-83
2021/04/21 03:51:13;;;;;;;12.73;8.88;;;8.40;89.20;;;;;;6129555;23;20103;-82
2021/04/21 03:53:40;;;;;;;12.25;8.82;;;8.30;89.20;;;;;;6155046;23;20385;-83
2021/04/21 03:56:16;;;;;;;13.32;9.10;;;8.30;89.10;;;;;;6156194;23;20063;-83
2021/04/21 03:58:43;;;;;;;13.27;9.07;;;8.20;89.30;;;;;;6156030;23;20021;-83
2021/04/21 04:01:18;;;;;;;12.55;8.85;;;8.20;89.20;;;;;;6154827;23;20018;-82
2021/04/21 04:03:55;;;;;;;13.02;9.23;;;8.20;89.20;;;;;;6156044;23;20017;-83
2021/04/21 04:06:29;;;;;;;14.07;9.65;;;8.10;88.90;;;;;;6155260;23;20036;-82
2021/04/21 04:09:04;;;;;;;13.40;9.55;;;8.10;88.80;;;;;;6154647;23;20469;-83
2021/04/21 04:11:43;;;;;;;13.65;9.82;;;8.10;88.90;;;;;;6155338;23;20017;-83
2021/04/21 04:14:28;;;;;;;11.98;8.82;;;8.00;88.80;;;;;;6154679;23;20022;-82
2021/04/21 04:16:57;;;;;;;15.23;9.35;;;8.00;88.60;;;;;;6155771;23;20080;-82
2021/04/21 04:19:24;;;;;;;12.77;9.80;;;7.90;88.80;;;;;;6155527;23;20028;-83
2021/04/21 04:21:58;;;;;;;13.18;9.93;;;7.90;88.90;;;;;;6154627;23;20340;-83
2021/04/21 04:24:26;;;;;;;13.00;8.80;;;7.90;89.10;;;;;;6154990;23;20041;-83
2021/04/21 04:26:56;;;;;;;13.05;10.18;;;7.80;88.90;;;;;;6154768;23;20025;-83
2021/04/21 04:29:24;;;;;;;12.25;9.35;;;7.80;89.20;;;;;;6154159;23;20517;-82
2021/04/21 04:31:52;;;;;;;12.40;9.38;;;7.70;89.10;;;;;;6155532;23;20040;-83
2021/04/21 04:34:21;;;;;;;13.15;8.95;;;7.70;89.20;;;;;;6154473;23;20505;-83
2021/04/21 04:36:47;;;;;;;12.13;9.65;;;7.70;89.20;;;;;;6154767;23;20148;-82
2021/04/21 04:39:14;;;;;;;12.27;9.63;;;7.60;89.20;;;;;;6155127;23;20416;-83
2021/04/21 04:41:41;;;;;;;13.95;9.35;;;7.60;89.00;;;;;;6155642;23;20026;-83
2021/04/21 04:44:09;;;;;;;13.68;9.60;;;7.60;88.80;;;;;;6154380;23;20068;-82
2021/04/21 04:46:49;;;;;;;13.88;9.90;;;7.60;88.90;;;;;;6155419;23;20025;-83
2021/04/21 04:49:18;;;;;;;12.35;9.30;;;7.60;89.20;;;;;;6154398;23;20021;-83
2021/04/21 04:51:46;;;;;;;11.75;9.23;;;7.50;89.20;;;;;;6155547;23;20017;-83
2021/04/21 04:54:14;;;;;;;13.02;9.52;;;7.50;89.00;;;;;;6154774;23;20324;-83
2021/04/21 04:56:43;;;;;;;11.95;8.85;;;7.50;89.10;;;;;;6154696;23;20014;-83
2021/04/21 04:59:11;;;;;;;12.95;9.38;;;7.40;89.00;;;;;;6155209;23;20017;-83
2021/04/21 05:01:57;;;;;;;13.02;9.07;;;7.40;88.90;;;;;;6154823;23;20018;-83
2021/04/21 05:04:35;;;;;;;11.80;9.35;;;7.40;88.70;;;;;;6153728;23;20517;-82
2021/04/21 05:07:07;;;;;;;13.10;9.35;;;7.40;89.20;;;;;;6155740;23;20014;-83
2021/04/21 05:09:45;;;;;;;11.75;9.40;;;7.40;89.30;;;;;;6154902;23;20024;-83
2021/04/21 05:12:13;;;;;;;13.63;9.45;;;7.30;89.20;;;;;;6153661;23;20025;-82
2021/04/21 05:14:42;;;;;;;12.35;9.02;;;7.30;89.20;;;;;;6155535;23;20024;-83
2021/04/21 05:17:33;;;;;;;13.13;9.95;;;7.30;89.10;;;;;;6153436;23;20029;-83
2021/04/21 05:20:36;;;;;;;11.75;9.20;;;7.30;88.80;;;;;;6154986;23;20017;-82
2021/04/21 05:23:28;;;;;;;11.13;8.70;;;7.30;89.20;;;;;;6155025;23;20017;-82
2021/04/21 05:26:16;;;;;;;15.80;9.52;;;7.30;89.40;;;;;;6154174;23;20021;-82
2021/04/21 05:28:59;;;;;;;14.02;10.02;;;7.30;89.70;;;;;;6128911;23;20030;-84
2021/04/21 05:32:06;;;;;;;16.38;9.80;;;7.20;89.70;;;;;;6153905;23;20021;-83
2021/04/21 05:35:22;;;;;;;12.32;9.00;;;7.20;89.50;;;;;;6154511;23;20449;-83
2021/04/21 05:38:36;;;;;;;12.38;9.35;;;7.20;89.00;;;;;;6154818;23;20022;-83
2021/04/21 05:41:29;;;;;;;12.70;8.90;;;7.20;88.90;;;;;;6140747;23;20017;-83
2021/04/21 05:44:24;;;;;;;13.23;9.95;;;7.20;89.00;;;;;;6155534;23;20018;-83
2021/04/21 05:46:59;;;;;;;13.55;9.45;;;7.20;89.40;;;;;;6154180;23;20049;-83
2021/04/21 05:49:49;;;;;;;13.75;9.57;;;7.20;89.70;;;;;;6155064;23;20017;-83
2021/04/21 05:52:29;;;;;;;13.82;9.20;;;7.30;89.50;;;;;;6154127;23;20018;-82
2021/04/21 05:55:12;;;;;;;12.40;9.57;;;7.30;89.20;;;;;;6155470;23;20370;-83
2021/04/21 05:57:59;;;;;;;14.98;10.63;;;7.20;88.90;;;;;;6153318;23;20018;-81
2021/04/21 06:00:56;;;;;;;14.23;10.05;;;7.30;89.40;;;;;;6156160;23;20020;-84
2021/04/21 06:03:23;;;;;;;13.77;10.80;;;7.30;89.30;;;;;;6155984;23;20350;-88
2021/04/21 06:05:48;;;;;;;17.45;11.45;;;7.30;89.70;;;;;;6157246;23;20014;-87
2021/04/21 06:08:14;;;;;;;14.82;11.00;;;7.30;89.50;;;;;;6156425;23;20022;-89
2021/04/21 06:10:41;;;;;;;16.05;10.98;;;7.30;89.70;;;;;;6157360;23;20082;-88
2021/04/21 06:13:07;;;;;;;14.88;10.55;;;7.40;89.70;;;;;;6156865;23;20021;-82
2021/04/21 06:15:35;;;;;;;17.58;11.07;;;7.50;89.20;;;;;;6155648;23;20089;-84
2021/04/21 06:18:03;;;;;;;15.32;11.52;;;7.50;88.90;;;;;;6156854;23;20075;-81
2021/04/21 06:20:35;;;;;;;16.90;12.52;;;7.50;88.80;;;;;;6142325;23;20394;-83
2021/04/21 06:23:13;;;;;;;19.00;13.80;;;7.60;89.10;;;;;;6153815;23;20021;-83
2021/04/21 06:25:43;;;;;;;16.75;12.55;;;7.70;89.60;;;;;;6155376;23;20024;-82
2021/04/21 06:28:23;;;;;;;21.77;15.13;;;7.70;89.60;;;;;;6155198;23;20312;-83
2021/04/21 06:31:11;;;;;;;18.65;15.20;;;7.80;90.00;;;;;;6156958;23;20018;-83
2021/04/21 06:33:45;;;;;;;20.33;13.32;;;8.00;90.00;;;;;;6154594;23;20041;-82
2021/04/21 06:36:12;;;;;;;18.05;13.55;;;8.10;90.00;;;;;;6148227;23;20079;-84
2021/04/21 06:38:39;;;;;;;20.88;14.95;;;8.20;90.00;;;;;;6156849;23;20037;-82
2021/04/21 06:41:24;;;;;;;18.60;13.82;;;8.30;89.80;;;;;;6146212;23;20407;-83
2021/04/21 06:43:59;;;;;;;23.50;15.40;;;8.30;89.40;;;;;;6155423;23;20033;-84
2021/04/21 06:46:34;;;;;;;26.63;18.55;;;8.40;89.50;;;;;;6155061;23;20466;-83
2021/04/21 06:49:15;;;;;;;24.50;15.55;;;8.50;89.60;;;;;;6154666;23;20021;-83
2021/04/21 06:51:49;;;;;;;28.75;19.15;;;8.60;89.20;;;;;;6156053;23;20550;-83
2021/04/21 06:54:20;;;;;;;25.15;18.60;;;8.70;89.30;;;;;;6155226;23;20447;-84
2021/04/21 06:56:48;;;;;;;27.23;19.45;;;8.80;89.30;;;;;;6154872;23;20461;-84
2021/04/21 06:59:33;;;;;;;27.50;19.13;;;8.80;89.30;;;;;;6155422;23;20049;-83
2021/04/21 07:01:59;;;;;;;24.95;19.27;;;8.90;89.50;;;;;;6156246;23;20022;-83
2021/04/21 07:04:34;;;;;;;22.73;17.40;;;9.00;89.40;;;;;;6154970;23;20084;-83
2021/04/21 07:07:06;;;;;;;30.30;21.77;;;9.00;89.00;;;;;;6155492;23;20021;-83
2021/04/21 07:09:32;;;;;;;29.08;19.75;;;9.10;89.10;;;;;;6154982;23;20072;-84
2021/04/21 07:12:00;;;;;;;28.23;21.05;;;9.10;89.40;;;;;;6154381;23;20017;-84
2021/04/21 07:14:28;;;;;;;33.10;23.20;;;9.20;89.50;;;;;;6150468;23;20022;-83
2021/04/21 07:17:12;;;;;;;38.72;26.30;;;9.20;89.40;;;;;;6151317;23;20053;-84
2021/04/21 07:19:47;;;;;;;39.38;26.40;;;9.30;89.40;;;;;;6155019;23;20327;-84
2021/04/21 07:22:46;;;;;;;41.25;26.38;;;9.30;89.50;;;;;;6155575;23;20416;-83
2021/04/21 07:25:18;;;;;;;41.05;26.58;;;9.40;89.70;;;;;;6007435;23;20024;-84
2021/04/21 07:27:49;;;;;;;43.78;26.73;;;9.50;89.60;;;;;;6029642;23;20021;-83
2021/04/21 07:30:47;;;;;;;42.13;26.92;;;9.50;89.60;;;;;;6154998;23;20024;-83
2021/04/21 07:33:44;;;;;;;45.10;28.85;;;9.50;89.60;;;;;;6155389;23;20018;-83
2021/04/21 07:36:45;;;;;;;39.92;25.00;;;9.60;89.70;;;;;;6155222;23;20017;-83
2021/04/21 07:39:18;;;;;;;38.53;26.45;;;9.60;89.60;;;;;;6154855;23;20018;-83
2021/04/21 07:41:50;;;;;;;40.33;25.77;;;9.60;89.50;;;;;;6153269;23;20017;-83
2021/04/21 07:44:50;;;;;;;41.83;25.60;;;9.60;89.30;;;;;;6153532;23;20284;-83
2021/04/21 07:47:21;;;;;;;37.60;24.48;;;9.70;89.30;;;;;;6155411;23;20021;-83
2021/04/21 07:50:14;;;;;;;40.03;26.13;;;9.70;89.40;;;;;;6148856;23;20345;-83
2021/04/21 07:52:40;;;;;;;42.08;26.58;;;9.80;89.10;;;;;;6153895;23;20021;-83
2021/04/21 07:55:27;;;;;;;43.22;25.27;;;9.80;88.90;;;;;;6155566;23;20327;-84
2021/04/21 07:58:12;;;;;;;42.38;25.50;;;9.80;88.90;;;;;;6155141;23;20017;-82
2021/04/21 08:01:02;;;;;;;42.20;26.20;;;9.80;88.70;;;;;;6154033;23;20450;-83
2021/04/21 08:04:21;;;;;;;39.63;25.30;;;9.80;88.90;;;;;;6133191;23;20096;-82
2021/04/21 08:10:49;;;;;;;38.78;24.77;;;9.80;88.90;;;;;;6155103;23;20775;-85
2021/04/21 08:14:03;;;;;;;48.17;26.40;;;9.80;89.00;;;;;;6154405;23;20021;-82
2021/04/21 08:17:14;;;;;;;41.88;25.52;;;9.80;89.10;;;;;;6126185;23;20021;-84
2021/04/21 08:19:55;;;;;;;49.00;26.27;;;9.80;89.00;;;;;;6154892;23;20040;-86
2021/04/21 08:22:41;;;;;;;37.30;25.10;;;9.80;89.10;;;;;;6142712;23;20028;-84
2021/04/21 08:25:16;;;;;;;41.85;27.55;;;9.80;89.10;;;;;;6146977;23;20045;-86
2021/04/21 08:31:46;;;;;;;43.20;25.45;;;9.90;89.00;;;;;;6155819;23;20121;-85
2021/04/21 08:34:35;;;;;;;40.55;24.85;;;10.00;89.10;;;;;;6154082;23;20021;-86
2021/04/21 08:37:36;;;;;;;38.00;23.92;;;10.00;88.90;;;;;;6122704;23;20056;-86
2021/04/21 08:41:10;;;;;;;;;;;;;;;;;;;;;
2021/04/21 08:44:35;;;;;;;41.47;25.70;;;10.00;88.70;;;;;;6104804;23;20031;-86
2021/04/21 08:48:16;;;;;;;39.10;23.48;;;10.10;88.70;;;;;;6145675;23;20101;-85
2021/04/21 08:51:09;;;;;;;42.30;24.65;;;10.10;88.50;;;;;;6007503;23;20453;-86
2021/04/21 08:54:05;;;;;;;44.00;24.13;;;10.10;88.40;;;;;;6008202;23;20023;-86
2021/04/21 08:57:00;;;;;;;40.83;23.70;;;10.10;88.30;;;;;;6151365;23;20068;-86
2021/04/21 09:00:06;;;;;;;37.75;22.83;;;10.10;88.30;;;;;;6151761;23;20018;-85
2021/04/21 09:03:15;;;;;;;32.63;20.85;;;10.10;88.10;;;;;;6143552;23;20053;-86
2021/04/21 09:05:43;;;;;;;33.13;20.30;;;10.20;87.90;;;;;;6007655;23;20043;-86
2021/04/21 09:08:11;;;;;;;31.30;20.63;;;10.20;88.00;;;;;;6007561;23;20023;-86
2021/04/21 09:11:13;;;;;;;31.67;19.27;;;10.20;87.90;;;;;;6006952;23;20046;-86
2021/04/21 09:14:10;;;;;;;24.80;16.60;;;10.20;87.70;;;;;;6003021;23;20113;-85
2021/04/21 09:16:44;;;;;;;30.35;18.38;;;10.20;88.10;;;;;;6006777;23;20031;-85
2021/04/21 09:19:12;;;;;;;24.98;16.63;;;10.20;87.30;;;;;;6005257;23;20016;-84
2021/04/21 09:21:41;;;;;;;28.30;19.10;;;10.30;87.50;;;;;;6007895;23;20109;-84
2021/04/21 09:24:29;;;;;;;26.73;15.32;;;10.30;87.60;;;;;;6006197;23;20394;-86
2021/04/21 09:31:32;;;;;;;22.13;12.00;;;10.40;87.00;;;;;;6006228;23;20463;-86
2021/04/21 09:34:19;;;;;;;22.27;11.93;;;10.50;86.20;;;;;;6003718;23;20041;-84
2021/04/21 09:46:54;;;;;;;15.60;8.55;;;10.60;84.30;;;;;;6152991;23;20030;-85
2021/04/21 10:00:49;;;;;;;12.52;5.28;;;10.50;83.40;;;;;;6124998;23;20025;-85
2021/04/21 10:03:15;;;;;;;10.25;4.18;;;10.50;83.30;;;;;;6126942;23;20085;-86
2021/04/21 10:05:47;;;;;;;9.75;2.83;;;10.60;82.90;;;;;;6126921;23;20578;-88
2021/04/21 10:08:15;;;;;;;7.50;2.63;;;10.60;81.50;;;;;;6127487;23;20335;-89
2021/04/21 10:11:21;;;;;;;10.65;4.57;;;10.60;81.20;;;;;;6127451;23;20089;-85
2021/04/21 10:13:52;;;;;;;4.90;1.80;;;10.60;81.50;;;;;;6126076;23;20085;-86
2021/04/21 10:16:19;;;;;;;8.00;2.38;;;10.70;80.50;;;;;;6121897;23;20053;-84
2021/04/21 10:18:45;;;;;;;10.70;4.95;;;10.70;79.90;;;;;;6116725;23;20351;-83
2021/04/21 10:21:13;;;;;;;9.82;3.22;;;10.70;80.80;;;;;;6114383;23;20462;-84
2021/04/21 10:23:39;;;;;;;9.20;2.28;;;10.80;81.20;;;;;;6117391;23;20471;-84
2021/04/21 10:26:07;;;;;;;6.25;1.70;;;10.90;80.30;;;;;;6101455;23;20025;-85
2021/04/21 10:28:34;;;;;;;7.30;3.40;;;10.90;78.90;;;;;;6125798;23;20101;-84
2021/04/21 10:31:03;;;;;;;13.85;2.50;;;11.00;79.60;;;;;;6127262;23;20017;-85
2021/04/21 10:33:30;;;;;;;8.93;2.58;;;11.00;79.30;;;;;;6123902;23;20069;-84
2021/04/21 10:35:57;;;;;;;9.57;2.70;;;11.00;79.30;;;;;;6124035;23;20065;-84
2021/04/21 10:38:27;;;;;;;7.03;1.90;;;11.10;79.10;;;;;;6125843;23;20025;-85
2021/04/21 10:41:44;;;;;;;14.95;1.98;;;11.10;78.20;;;;;;6125571;23;20353;-83
2021/04/21 10:44:09;;;;;;;11.18;2.28;;;11.10;75.90;;;;;;6125606;23;20018;-84
2021/04/21 10:46:57;;;;;;;9.20;1.92;;;11.00;77.50;;;;;;6119819;23;20022;-84
2021/04/21 10:49:35;;;;;;;6.95;1.88;;;11.10;76.80;;;;;;6125128;23;20105;-85
2021/04/21 10:52:11;;;;;;;8.48;1.75;;;11.10;78.30;;;;;;6126818;23;20390;-85
2021/04/21 10:54:37;;;;;;;9.07;2.10;;;11.20;77.10;;;;;;6125627;23;20045;-88
2021/04/21 10:57:21;;;;;;;12.45;1.98;;;11.20;77.80;;;;;;6126579;23;20029;-86
2021/04/21 11:00:06;;;;;;;12.68;2.15;;;11.30;75.60;;;;;;6145526;23;20017;-86
2021/04/21 11:02:41;;;;;;;15.02;2.20;;;11.40;75.10;;;;;;6155040;23;20021;-82
2021/04/21 11:05:10;;;;;;;9.95;1.85;;;11.50;74.10;;;;;;6155513;23;20454;-82
2021/04/21 11:07:37;;;;;;;10.60;2.22;;;11.50;75.00;;;;;;6155747;23;20032;-82
2021/04/21 11:10:04;;;;;;;11.27;2.05;;;11.60;76.40;;;;;;6155403;23;20025;-83
2021/04/21 11:12:53;;;;;;;12.45;2.08;;;11.60;76.90;;;;;;6155185;23;20049;-81
2021/04/21 11:15:42;;;;;;;10.85;1.90;;;11.60;75.00;;;;;;6155311;23;20080;-82
2021/04/21 11:18:11;;;;;;;15.82;2.30;;;11.60;76.30;;;;;;6155922;23;20525;-82
2021/04/21 11:20:46;;;;;;;15.90;2.40;;;11.70;77.30;;;;;;6154577;23;20059;-82
2021/04/21 11:23:50;;;;;;;13.57;2.50;;;11.60;74.60;;;;;;6149938;23;20076;-83
2021/04/21 11:26:25;;;;;;;14.95;2.30;;;11.60;75.90;;;;;;6154146;23;20041;-82
2021/04/21 11:29:01;;;;;;;11.45;2.53;;;11.70;75.40;;;;;;6151201;23;20022;-82
2021/04/21 11:31:45;;;;;;;9.35;2.03;;;11.70;75.80;;;;;;6150439;23;20029;-83
2021/04/21 11:34:24;;;;;;;13.05;2.03;;;11.70;77.50;;;;;;6155525;23;20017;-84
2021/04/21 11:36:52;;;;;;;23.70;2.88;;;11.80;76.00;;;;;;6150927;23;20096;-81
2021/04/21 11:39:43;;;;;;;15.35;2.35;;;11.90;75.30;;;;;;6151586;23;20018;-83
2021/04/21 11:42:28;;;;;;;14.35;2.28;;;11.90;74.20;;;;;;6155119;23;20088;-81
2021/04/21 11:45:18;;;;;;;14.70;2.22;;;11.90;71.00;;;;;;6152831;23;20032;-83
2021/04/21 11:48:00;;;;;;;15.70;2.45;;;11.90;70.60;;;;;;6155575;23;20062;-84
2021/04/21 11:50:38;;;;;;;15.55;2.30;;;11.90;72.90;;;;;;6155262;23;20024;-83
2021/04/21 11:53:07;;;;;;;15.10;2.55;;;12.00;72.80;;;;;;6154861;23;20029;-84
2021/04/21 11:55:45;;;;;;;12.57;2.35;;;12.00;72.90;;;;;;6155631;23;20014;-84
2021/04/21 11:58:34;;;;;;;19.80;2.80;;;12.10;74.00;;;;;;6154844;23;20096;-84
2021/04/21 12:01:20;;;;;;;15.60;2.65;;;12.10;74.80;;;;;;6155341;23;20021;-85
2021/04/21 12:03:46;;;;;;;14.35;2.65;;;12.10;75.00;;;;;;6155646;23;20021;-84
2021/04/21 12:06:15;;;;;;;22.42;3.15;;;12.20;75.20;;;;;;6154461;23;20018;-83
2021/04/21 12:08:49;;;;;;;15.52;2.88;;;12.20;73.50;;;;;;6152240;23;20093;-82
2021/04/21 12:11:36;;;;;;;17.13;2.83;;;12.30;74.20;;;;;;6153150;23;20354;-84
2021/04/21 12:14:17;;;;;;;12.73;2.83;;;12.30;72.20;;;;;;6154079;23;20079;-84
2021/04/21 12:16:48;;;;;;;14.23;2.72;;;12.30;71.70;;;;;;6155059;23;20017;-84
2021/04/21 12:19:15;;;;;;;14.90;2.65;;;12.40;69.90;;;;;;6153334;23;20034;-84
2021/04/21 12:21:44;;;;;;;13.57;2.60;;;12.30;71.90;;;;;;6154455;23;20536;-84
2021/04/21 12:24:10;;;;;;;13.90;2.65;;;12.40;72.20;;;;;;6154327;23;20013;-83
2021/04/21 12:26:38;;;;;;;14.77;2.85;;;12.40;73.20;;;;;;6154527;23;20514;-83
2021/04/21 12:29:17;;;;;;;16.48;2.58;;;12.30;73.70;;;;;;6155247;23;20080;-84
2021/04/21 12:31:44;;;;;;;13.10;2.40;;;12.40;72.80;;;;;;6155203;23;20021;-85
2021/04/21 12:34:28;;;;;;;11.70;2.30;;;12.40;71.20;;;;;;6150235;23;20018;-82
2021/04/21 12:36:54;;;;;;;11.30;2.20;;;12.30;68.70;;;;;;6150308;23;20025;-85
2021/04/21 12:39:22;;;;;;;10.43;2.45;;;12.30;71.80;;;;;;6155078;23;20022;-85
2021/04/21 12:41:54;;;;;;;14.07;2.40;;;12.40;74.10;;;;;;6153464;23;20084;-88
2021/04/21 12:44:29;;;;;;;12.75;2.90;;;12.50;71.80;;;;;;6149736;23;20028;-85
2021/04/21 12:47:05;;;;;;;15.52;2.85;;;12.60;72.60;;;;;;6150945;23;20529;-85
2021/04/21 12:49:38;;;;;;;16.85;2.80;;;12.60;68.80;;;;;;6153945;23;20017;-86
2021/04/21 12:52:08;;;;;;;13.60;2.67;;;12.60;72.60;;;;;;6153735;23;20076;-85
2021/04/21 12:54:48;;;;;;;13.73;2.95;;;12.80;73.30;;;;;;6154038;23;20361;-85
2021/04/21 12:57:16;;;;;;;12.98;2.60;;;12.80;70.70;;;;;;6154929;23;20033;-84
2021/04/21 12:59:45;;;;;;;11.13;2.35;;;12.80;69.70;;;;;;6154899;23;20022;-84
2021/04/21 13:02:16;;;;;;;12.65;2.72;;;12.80;72.50;;;;;;6153415;23;20017;-84
2021/04/21 13:04:43;;;;;;;12.82;2.88;;;12.80;73.60;;;;;;6154978;23;20018;-81
2021/04/21 13:07:21;;;;;;;14.27;3.08;;;12.90;73.10;;;;;;6155269;23;20044;-81
2021/04/21 13:09:47;;;;;;;17.85;3.03;;;12.80;74.60;;;;;;6154136;23;20045;-81
2021/04/21 13:12:19;;;;;;;14.95;2.75;;;12.90;75.10;;;;;;6154357;23;20041;-83
2021/04/21 13:14:49;;;;;;;17.75;2.80;;;13.00;72.30;;;;;;6154719;23;20044;-85
2021/04/21 13:17:17;;;;;;;12.55;2.85;;;13.00;69.90;;;;;;6154382;23;20040;-85
2021/04/21 13:19:59;;;;;;;16.08;2.97;;;13.00;72.20;;;;;;6154538;23;20018;-86
2021/04/21 13:22:26;;;;;;;17.05;2.88;;;13.10;68.60;;;;;;6153017;23;20017;-87
2021/04/21 13:24:57;;;;;;;10.57;2.78;;;13.00;69.30;;;;;;6154163;23;20466;-87
2021/04/21 13:27:31;;;;;;;15.68;2.78;;;13.00;71.70;;;;;;6153632;23;20024;-85
2021/04/21 13:30:01;;;;;;;19.00;2.05;;;13.00;70.80;;;;;;6151837;23;20022;-86
2021/04/21 13:32:28;;;;;;;14.98;2.78;;;12.90;67.20;;;;;;6153552;23;20021;-80
2021/04/21 13:34:54;;;;;;;9.25;2.17;;;13.00;71.80;;;;;;6152502;23;20017;-81
2021/04/21 13:37:21;;;;;;;10.38;2.35;;;13.10;72.40;;;;;;6153420;23;20048;-83
2021/04/21 13:40:04;;;;;;;13.23;2.60;;;13.20;70.00;;;;;;6154645;23;20451;-83
2021/04/21 13:42:31;;;;;;;13.57;2.40;;;13.10;67.90;;;;;;6154824;23;20088;-82
2021/04/21 13:44:57;;;;;;;11.65;3.05;;;13.20;68.00;;;;;;6146918;23;20056;-84
2021/04/21 13:47:22;;;;;;;13.18;2.55;;;13.20;70.70;;;;;;6152849;23;20022;-84
2021/04/21 13:49:48;;;;;;;16.65;2.92;;;13.20;70.20;;;;;;6154490;23;20021;-83
2021/04/21 13:52:14;;;;;;;11.50;2.70;;;13.20;68.10;;;;;;6152588;23;20018;-84
2021/04/21 13:54:40;;;;;;;10.57;2.45;;;13.20;68.30;;;;;;6154387;23;20024;-83
2021/04/21 13:57:06;;;;;;;12.02;2.40;;;13.20;68.10;;;;;;6153981;23;20080;-83
2021/04/21 13:59:32;;;;;;;13.32;2.72;;;13.20;69.20;;;;;;6153088;23;20501;-84
2021/04/21 14:01:58;;;;;;;14.05;2.80;;;13.30;72.80;;;;;;6154706;23;20014;-84
2021/04/21 14:04:26;;;;;;;10.13;2.67;;;13.40;73.10;;;;;;6153978;23;20044;-84
2021/04/21 14:06:52;;;;;;;10.82;2.40;;;13.40;67.40;;;;;;6153196;23;20021;-84